Time;durP1;ratioP1;P1;durP2;ratioP2;P2;SDS_P1;SDS_P2;PMS_P1;PMS_P2;Temp;Humidity;BMP_temperature;BMP_pressure;BME280_temperature;BME280_humidity;BME280_pressure;Samples;Min_cycle;Max_cycle;Signal;HPM_P1;HPM_P2
2021/01/04 00:00:12;;;;;;;;;;;2.10;99.90;;;0.21;71.63;95146.59;10419698;28;1678;-80
2021/01/04 00:17:52;;;;;;;;;;;1.00;99.90;;;-0.03;73.15;95149.13;10302822;28;2002;-82
2021/01/04 00:35:15;;;;;;;;;;;1.00;99.90;;;0.06;72.81;95148.81;10299642;28;2042;-83
2021/01/04 00:41:10;;;;;;;;;;;2.60;99.90;;;0.02;72.79;95155.59;10308500;28;1697;-82
2021/01/04 00:46:28;;;;;;;;;;;1.90;99.90;;;0.14;72.88;95154.63;10339869;28;2010;-82
2021/01/04 00:58:21;;;;;;;;;;;;;;;;;;;;;
2021/01/04 01:16:49;;;;;;;;;;;;;;;;;;;;;
2021/01/04 01:22:58;;;;;;;;;;;2.20;99.90;;;0.13;72.19;95174.16;10444779;28;2024;-82
2021/01/04 01:28:57;;;;;;;;;;;2.70;99.90;;;0.21;72.05;95175.69;10340423;28;1844;-81
2021/01/04 01:40:24;;;;;;;;;;;2.10;99.90;;;0.34;71.70;95169.41;10195362;29;1984;-82
2021/01/04 02:15:44;;;;;;;;;;;2.40;99.90;;;0.20;71.55;95168.78;10481181;28;1974;-82
2021/01/04 02:32:51;;;;;;;;;;;1.20;99.90;;;-0.10;71.52;95174.03;10506615;28;2046;-83
2021/01/04 02:44:16;;;;;;;;;;;2.00;99.90;;;-0.30;72.93;95171.63;10382481;28;2074;-81
2021/01/04 03:07:14;;;;;;;;;;;0.60;99.90;;;-0.28;73.11;95174.84;10504562;28;1696;-81
2021/01/04 03:13:00;;;;;;;;;;;0.70;99.90;;;-0.32;73.02;95171.00;10514043;28;2082;-81
2021/01/04 03:18:29;;;;;;;;;;;1.40;99.90;;;-0.39;73.25;95175.56;10505094;28;1999;-81
2021/01/04 03:23:36;;;;;;;;;;;0.60;99.90;;;-0.57;74.10;95179.81;10510132;28;2058;-81
2021/01/04 03:28:50;;;;;;;;;;;2.50;99.90;;;-0.66;74.55;95177.66;10508494;28;2047;-81
2021/01/04 03:34:05;;;;;;;;;;;0.30;99.90;;;-0.62;74.84;95181.50;10529229;28;2030;-83
2021/01/04 03:39:21;;;;;;;;;;;0.70;99.90;;;-0.54;74.08;95178.56;10498768;28;2208;-82
2021/01/04 03:44:50;;;;;;;;;;;0.30;99.90;;;-0.53;73.88;95184.66;10528314;28;2257;-83
2021/01/04 03:50:23;;;;;;;;;;;1.90;99.90;;;-0.83;74.84;95174.78;10522537;28;2131;-81
2021/01/04 03:55:33;;;;;;;;;;;0.70;99.90;;;-0.87;74.99;95169.13;10510128;28;1942;-82
2021/01/04 04:00:48;;;;;;;;;;;0.30;99.90;;;-0.78;75.33;95174.94;10545083;28;1979;-82
2021/01/04 04:06:08;;;;;;;;;;;0.20;99.90;;;-0.81;74.33;95167.47;10521437;28;1805;-81
2021/01/04 04:23:39;;;;;;;;;;;0.20;99.90;;;-0.92;75.03;95173.44;10499869;28;2305;-82
2021/01/04 04:29:02;;;;;;;;;;;0.10;99.90;;;-1.07;75.34;95178.25;10523239;28;2015;-82
2021/01/04 04:40:23;;;;;;;;;;;1.20;99.90;;;-0.83;74.93;95169.50;10298783;28;2096;-84
2021/01/04 04:45:40;;;;;;;;;;;1.20;99.90;;;-0.90;75.57;95168.75;10350701;28;1638;-82
2021/01/04 04:51:22;;;;;;;;;;;;;;;;;;;;;
2021/01/04 05:03:06;;;;;;;;;;;1.70;99.90;;;-0.40;73.87;95171.31;10244435;29;2235;-82
2021/01/04 05:20:59;;;;;;;;;;;0.50;99.90;;;-0.87;73.79;95178.88;10331926;28;2261;-81
2021/01/04 05:26:45;;;;;;;;;;;0.60;99.90;;;-0.92;74.56;95181.38;10307403;28;2324;-82
2021/01/04 05:32:07;;;;;;;;;;;1.10;99.90;;;-0.86;74.46;95175.22;10470414;28;2065;-81
2021/01/04 05:37:40;;;;;;;;;;;;;;;;;;;;;
2021/01/04 05:43:07;;;;;;;;;;;1.50;99.90;;;-0.74;74.92;95167.41;10498726;28;2040;-81
2021/01/04 05:49:05;;;;;;;;;;;1.30;99.90;;;-0.47;74.49;95158.19;10372298;28;2039;-83
2021/01/04 05:54:42;;;;;;;;;;;0.40;99.90;;;-0.42;73.00;95165.44;10365635;28;2172;-83
2021/01/04 05:59:58;;;;;;;;;;;0.60;99.90;;;-0.71;73.59;95156.41;10359648;28;2028;-83
2021/01/04 06:11:16;;;;;;;;;;;1.60;99.90;;;-0.64;73.34;95165.06;10355683;28;2310;-81
2021/01/04 06:16:38;;;;;;;;;;;2.30;99.90;;;-0.80;74.16;95163.00;10355384;28;2237;-80
2021/01/04 06:21:40;;;;;;;;;;;0.20;99.90;;;-0.90;74.58;95163.47;10336343;28;2075;-82
2021/01/04 06:26:45;;;;;;;;;;;0.20;99.90;;;-0.92;74.67;95168.97;10536705;28;2066;-80
2021/01/04 06:31:46;;;;;;;;;;;0.20;99.90;;;-0.83;73.99;95169.50;10526120;28;2042;-80
2021/01/04 06:36:48;;;;;;;;;;;1.40;99.90;;;-0.74;73.95;95168.22;10512957;28;2027;-82
2021/01/04 06:41:50;;;;;;;;;;;0.30;99.90;;;-0.90;74.52;95172.19;10499338;28;2113;-82
2021/01/04 06:46:52;;;;;;;;;;;0.20;99.90;;;-0.92;75.34;95165.53;10534990;28;2121;-80
2021/01/04 06:51:55;;;;;;;;;;;0.10;99.90;;;-0.69;74.35;95164.94;10520263;28;2049;-83
2021/01/04 07:02:43;;;;;;;;;;;1.30;99.90;;;-0.70;73.87;95174.69;10493563;28;2129;-82
2021/01/04 07:08:11;;;;;;;;;;;0.30;99.90;;;-0.77;74.14;95165.19;10477250;28;1828;-82
2021/01/04 07:13:13;;;;;;;;;;;0.30;99.90;;;-0.89;74.97;95178.28;10509897;28;1979;-80
2021/01/04 07:18:15;;;;;;;;;;;0.20;99.90;;;-0.99;75.36;95183.25;10515100;28;1947;-81
2021/01/04 07:23:17;;;;;;;;;;;0.10;99.90;;;-1.07;75.07;95189.63;10509878;28;1913;-83
2021/01/04 07:28:18;;;;;;;;;;;0.00;99.90;;;-0.97;75.32;95189.91;10506942;28;1757;-82
2021/01/04 07:33:20;;;;;;;;;;;0.00;99.90;;;-1.10;75.11;95197.94;10506620;28;1959;-81
2021/01/04 07:38:22;;;;;;;;;;;0.10;99.90;;;-1.09;75.53;95202.19;10516905;28;1608;-79
2021/01/04 07:43:24;;;;;;;;;;;0.80;99.90;;;-1.12;75.72;95208.72;10503164;28;1643;-81
2021/01/04 07:48:26;;;;;;;;;;;-0.10;99.90;;;-1.02;75.60;95202.94;10508008;28;1935;-81
2021/01/04 07:53:28;;;;;;;;;;;0.00;99.90;;;-0.96;76.23;95209.19;10514516;28;1945;-83
2021/01/04 07:58:30;;;;;;;;;;;0.10;99.90;;;-1.00;75.64;95216.75;10551889;28;1473;-83
2021/01/04 08:03:32;;;;;;;;;;;0.10;99.90;;;-1.13;76.02;95206.28;10563496;28;1911;-82
2021/01/04 08:08:33;;;;;;;;;;;0.00;99.90;;;-1.01;75.72;95207.22;10536248;28;1857;-83
2021/01/04 08:13:36;;;;;;;;;;;1.60;99.90;;;-0.90;75.43;95203.06;10510854;28;1902;-82
2021/01/04 08:18:38;;;;;;;;;;;0.00;99.90;;;-0.71;74.81;95207.34;10503018;28;2095;-82
2021/01/04 08:23:51;;;;;;;;;;;1.80;99.90;;;-0.73;75.34;95217.31;10522844;28;1819;-83
2021/01/04 08:29:03;;;;;;;;;;;0.30;99.90;;;-0.95;75.75;95213.47;10509663;28;1653;-84
2021/01/04 08:34:24;;;;;;;;;;;;;;;;;;;;;
2021/01/04 08:46:22;;;;;;;;;;;0.80;99.90;;;-1.03;76.80;95226.91;10524282;28;1582;-84
2021/01/04 09:51:51;;;;;;;;;;;1.50;99.90;;;-1.03;76.79;95216.34;10304855;28;1881;-84
2021/01/04 10:03:26;;;;;;;;;;;;;;;;;;;;;
2021/01/04 10:08:58;;;;;;;;;;;0.70;99.90;;;-1.10;77.92;95211.94;10385446;28;2045;-87
2021/01/04 10:21:01;;;;;;;;;;;0.80;99.90;;;-0.88;77.33;95208.94;10302913;28;2140;-83
2021/01/04 10:26:08;;;;;;;;;;;0.00;99.90;;;-0.89;77.62;95202.03;10381455;28;2055;-82
2021/01/04 10:31:11;;;;;;;;;;;2.20;99.90;;;-1.02;77.77;95195.03;10336155;28;1725;-81
2021/01/04 10:36:16;;;;;;;;;;;-0.10;99.90;;;-0.89;77.15;95196.75;10369642;28;2083;-82
2021/01/04 10:41:20;;;;;;;;;;;0.20;99.90;;;-0.94;77.39;95178.13;10474225;28;1974;-80
2021/01/04 10:46:22;;;;;;;;;;;1.70;99.90;;;-1.06;76.81;95177.22;10466485;28;1972;-82
2021/01/04 10:51:29;;;;;;;;;;;1.40;99.90;;;-1.05;77.24;95166.44;10473979;28;2006;-81
2021/01/04 10:56:35;;;;;;;;;;;1.20;99.90;;;-1.13;77.70;95159.63;10466802;28;2049;-84
2021/01/04 11:01:43;;;;;;;;;;;-0.10;99.90;;;-1.08;77.22;95151.06;10491818;28;1754;-84
2021/01/04 11:06:45;;;;;;;;;;;0.30;99.90;;;-1.07;77.29;95147.41;10480097;28;1873;-83
2021/01/04 11:11:46;;;;;;;;;;;-0.10;99.90;;;-1.17;78.67;95147.88;10491535;28;1876;-85
2021/01/04 11:16:49;;;;;;;;;;;-0.10;99.90;;;-1.25;78.20;95132.34;10482480;28;2055;-85
2021/01/04 11:21:50;;;;;;;;;;;-0.10;99.90;;;-1.39;78.62;95133.47;10484258;28;1968;-84
2021/01/04 11:26:53;;;;;;;;;;;-0.30;99.90;;;-1.23;78.36;95130.28;10475687;28;2033;-83
2021/01/04 11:37:17;;;;;;;;;;;1.30;99.90;;;-1.56;79.57;95142.91;10496532;28;1894;-83
2021/01/04 11:42:28;;;;;;;;;;;1.00;99.90;;;-1.60;79.98;95136.44;10477414;28;1890;-83
2021/01/04 11:47:51;;;;;;;;;;;0.70;99.90;;;-1.50;79.91;95136.78;10455358;28;1758;-84
2021/01/04 11:53:14;;;;;;;;;;;0.50;99.90;;;-1.67;80.28;95139.94;10475302;28;2089;-83
2021/01/04 11:58:29;;;;;;;;;;;1.20;99.90;;;-1.59;80.37;95127.50;10459919;28;1841;-84
2021/01/04 12:37:55;;;;;;;;;;;0.50;99.90;;;-1.69;80.40;95114.81;10293105;28;2031;-83
2021/01/04 12:48:43;;;;;;;;;;;-0.70;99.90;;;-1.30;79.16;95105.81;10298212;28;1967;-82
2021/01/04 12:53:54;;;;;;;;;;;-0.30;99.90;;;-1.59;80.65;95093.25;10284621;28;1989;-83
2021/01/04 12:59:48;;;;;;;;;;;0.50;99.90;;;-1.61;80.75;95092.66;10280267;28;1950;-83
2021/01/04 13:10:43;;;;;;;;;;;0.40;99.90;;;-1.53;80.43;95087.13;10472068;28;2052;-81
2021/01/04 13:15:56;;;;;;;;;;;1.00;99.90;;;-1.70;81.02;95082.41;10454114;28;2026;-82
2021/01/04 13:20:59;;;;;;;;;;;-0.10;99.90;;;-1.75;81.39;95084.84;10493631;28;2096;-83
2021/01/04 13:26:03;;;;;;;;;;;0.70;99.90;;;-1.79;82.18;95086.28;10459715;28;1697;-81
2021/01/04 13:31:08;;;;;;;;;;;0.50;99.90;;;-1.79;81.39;95088.13;10460938;28;2069;-81
2021/01/04 13:36:10;;;;;;;;;;;-0.90;99.90;;;-1.82;81.93;95085.94;10496277;28;1914;-83
2021/01/04 13:41:12;;;;;;;;;;;-0.80;99.90;;;-1.97;82.23;95079.16;10487555;28;1861;-81
2021/01/04 13:46:14;;;;;;;;;;;-0.90;99.90;;;-2.03;82.14;95084.47;10465586;28;1933;-79
2021/01/04 13:51:16;;;;;;;;;;;-1.00;99.90;;;-1.90;82.08;95076.47;10471361;28;1972;-83
2021/01/04 13:56:22;;;;;;;;;;;-0.90;99.90;;;-1.93;82.38;95069.78;10491845;28;1967;-82
2021/01/04 14:12:34;;;;;;;;;;;-0.70;99.90;;;-1.96;81.69;95078.13;10465429;28;1774;-83
2021/01/04 14:18:01;;;;;;;;;;;0.80;99.90;;;-1.84;81.54;95083.53;10496858;28;1943;-82
2021/01/04 14:28:41;;;;;;;;;;;-0.30;99.90;;;-1.57;79.88;95089.41;10458358;28;1690;-80
2021/01/04 14:44:39;;;;;;;;;;;-0.70;99.90;;;-1.88;81.89;95071.78;2993939;26;2266;-85
2021/01/04 14:49:45;;;;;;;;;;;-0.90;99.90;;;-1.90;81.89;95084.38;10490987;28;2054;-80
2021/01/04 15:00:07;;;;;;;;;;;-0.90;99.90;;;-1.97;82.17;95089.69;10487514;28;1932;-81
2021/01/04 15:05:09;;;;;;;;;;;-0.90;99.90;;;-1.93;82.63;95095.31;10466647;28;1918;-81
2021/01/04 15:10:15;;;;;;;;;;;-0.90;99.90;;;-2.01;82.81;95100.84;10462178;28;1984;-81
2021/01/04 15:15:17;;;;;;;;;;;0.70;99.90;;;-2.02;83.04;95101.88;10484549;28;1984;-80
2021/01/04 15:20:19;;;;;;;;;;;-1.00;99.90;;;-1.95;83.46;95097.38;10462800;28;2054;-78
2021/01/04 15:25:34;;;;;;;;;;;-0.90;99.90;;;-1.99;82.88;95091.69;10463843;28;2037;-80
2021/01/04 15:30:38;;;;;;;;;;;1.00;99.90;;;-2.01;83.26;95090.31;10489292;28;2072;-80
2021/01/04 15:35:40;;;;;;;;;;;-0.60;99.90;;;-2.18;84.23;95090.78;10487316;28;2078;-83
2021/01/04 15:40:42;;;;;;;;;;;-1.10;99.90;;;-2.14;83.37;95093.81;10477454;28;1997;-82
2021/01/04 15:46:03;;;;;;;;;;;-0.50;99.90;;;-2.24;84.19;95094.25;10478334;28;1981;-84
2021/01/04 15:51:53;;;;;;;;;;;0.00;99.90;;;-2.19;83.68;95091.81;10466053;28;2032;-83
2021/01/04 15:57:12;;;;;;;;;;;-1.30;99.90;;;-2.25;83.52;95084.75;10342071;28;1994;-80
2021/01/04 16:02:22;;;;;;;;;;;-0.60;99.90;;;-2.17;82.73;95088.97;10364100;28;2073;-81
2021/01/04 16:07:25;;;;;;;;;;;-0.80;99.90;;;-2.20;82.46;95084.94;10341271;28;2026;-83
2021/01/04 16:12:28;;;;;;;;;;;0.40;99.90;;;-2.23;82.68;95080.09;10360375;28;2042;-82
2021/01/04 16:17:30;;;;;;;;;;;-1.10;99.90;;;-2.11;82.89;95071.50;10368627;28;2017;-81
2021/01/04 16:22:32;;;;;;;;;;;1.00;99.90;;;-2.25;82.52;95070.78;10366801;28;2042;-82
2021/01/04 16:27:34;;;;;;;;;;;-1.20;99.90;;;-2.13;83.19;95068.28;10468944;28;2048;-82
2021/01/04 16:32:35;;;;;;;;;;;-1.10;99.90;;;-2.19;82.00;95075.22;10482167;28;2013;-81
2021/01/04 16:37:37;;;;;;;;;;;-1.20;99.90;;;-2.27;82.28;95078.09;10478211;28;1951;-81
2021/01/04 16:42:40;;;;;;;;;;;-1.20;99.90;;;-2.31;82.47;95076.91;10451682;28;2068;-81
2021/01/04 16:47:42;;;;;;;;;;;-1.20;99.90;;;-2.10;82.00;95086.28;10477656;28;1961;-82
2021/01/04 16:52:44;;;;;;;;;;;-1.10;99.90;;;-2.09;82.59;95077.41;10471291;28;2098;-83
2021/01/04 16:57:46;;;;;;;;;;;-1.10;99.90;;;-2.20;82.08;95084.94;10469397;28;2072;-80
2021/01/04 17:02:52;;;;;;;;;;;0.50;99.90;;;-2.14;81.94;95083.28;10468560;28;2001;-82
2021/01/04 17:13:48;;;;;;;;;;;-1.10;99.90;;;-2.02;81.78;95070.25;10465982;28;2072;-80
2021/01/04 17:19:05;;;;;;;;;;;0.40;99.90;;;-1.95;81.59;95073.66;10477869;28;1988;-83
2021/01/04 17:24:15;;;;;;;;;;;0.60;99.90;;;-1.86;81.59;95075.00;10490781;28;2162;-82
2021/01/04 17:29:24;;;;;;;;;;;-0.90;99.90;;;-1.80;81.01;95068.06;10489893;28;2063;-82
2021/01/04 17:34:40;;;;;;;;;;;-0.70;99.90;;;-1.80;81.30;95079.41;10476491;28;4083;-83
2021/01/04 17:39:50;;;;;;;;;;;-0.70;99.90;;;-1.82;82.16;95081.47;10501993;28;1838;-80
2021/01/04 17:44:56;;;;;;;;;;;0.10;99.90;;;-1.69;81.11;95076.09;10475435;28;2213;-80
2021/01/04 17:50:03;;;;;;;;;;;-0.70;99.90;;;-1.68;81.13;95077.72;10502431;28;1244;-81
2021/01/04 17:55:05;;;;;;;;;;;-0.70;99.90;;;-1.72;80.66;95081.81;10482054;28;2060;-82
2021/01/04 18:00:07;;;;;;;;;;;-0.40;99.90;;;-1.79;81.48;95074.94;10490091;28;2029;-81
2021/01/04 18:05:10;;;;;;;;;;;-0.70;99.90;;;-1.80;81.87;95074.16;10462175;28;2348;-82
2021/01/04 18:10:24;;;;;;;;;;;-1.00;99.90;;;-1.77;81.42;95075.56;10469321;28;2019;-83
2021/01/04 18:15:42;;;;;;;;;;;;;;;;;;;;;
2021/01/04 18:20:53;;;;;;;;;;;0.60;99.90;;;-1.66;80.83;95069.59;10453009;28;2084;-81
2021/01/04 18:26:18;;;;;;;;;;;-0.80;99.90;;;-1.84;81.24;95072.19;10433962;28;1985;-82
2021/01/04 18:31:28;;;;;;;;;;;0.70;99.90;;;-1.70;81.04;95063.94;10480736;28;2112;-80
2021/01/04 18:37:05;;;;;;;;;;;0.90;99.90;;;-1.68;81.19;95061.91;10439955;28;2094;-82
2021/01/04 18:53:50;;;;;;;;;;;0.40;99.90;;;-1.64;80.39;95046.47;10471685;28;1974;-81
2021/01/04 18:58:54;;;;;;;;;;;1.50;99.90;;;-1.55;79.79;95049.63;10454300;28;3380;-82
2021/01/04 19:04:12;;;;;;;;;;;;;;;;;;;;;
2021/01/04 19:09:28;;;;;;;;;;;0.60;99.90;;;-1.57;80.54;95047.22;10477585;28;2129;-80
2021/01/04 19:14:51;;;;;;;;;;;1.20;99.90;;;-1.72;80.94;95052.84;10475841;28;1878;-83
2021/01/04 19:26:28;;;;;;;;;;;0.30;99.90;;;-1.70;80.77;95050.78;10505862;28;1288;-82
2021/01/04 19:31:41;;;;;;;;;;;-0.80;99.90;;;-1.71;81.46;95046.53;10535559;28;1243;-81
2021/01/04 19:36:55;;;;;;;;;;;-0.60;99.90;;;-1.64;81.57;95049.91;10508042;28;1970;-80
2021/01/04 19:42:22;;;;;;;;;;;0.30;99.90;;;-1.82;81.34;95046.41;10466547;28;1756;-81
2021/01/04 19:47:58;;;;;;;;;;;0.10;99.90;;;-1.61;81.61;95050.50;10347692;28;1680;-83
2021/01/04 20:04:55;;;;;;;;;;;0.30;99.90;;;-1.62;80.30;95041.78;10339177;28;1619;-80
2021/01/04 20:10:12;;;;;;;;;;;0.30;99.90;;;-1.68;80.57;95046.09;10335896;28;1190;-82
2021/01/04 20:16:08;;;;;;;;;;;0.90;99.90;;;-1.76;80.56;95043.72;10322386;28;1935;-82
2021/01/04 20:21:16;;;;;;;;;;;0.40;99.90;;;-1.72;81.84;95050.19;10354078;28;2070;-80
2021/01/04 20:26:18;;;;;;;;;;;-0.70;99.90;;;-1.80;81.19;95042.53;10478267;28;2092;-82
2021/01/04 20:31:19;;;;;;;;;;;-0.70;99.90;;;-1.81;81.76;95034.84;10471660;28;2149;-85
2021/01/04 20:36:21;;;;;;;;;;;-0.80;99.90;;;-1.67;81.19;95039.78;10505764;28;1879;-81
2021/01/04 20:41:23;;;;;;;;;;;0.40;99.90;;;-1.52;81.56;95033.41;10478792;28;2025;-81
2021/01/04 20:46:30;;;;;;;;;;;-0.60;99.90;;;-1.58;81.11;95039.53;10482996;28;2270;-83
2021/01/04 20:51:35;;;;;;;;;;;0.50;99.90;;;-1.70;81.16;95042.88;10482635;28;2097;-83
2021/01/04 20:56:37;;;;;;;;;;;-0.60;99.90;;;-1.73;81.71;95034.56;10476129;28;2044;-82
2021/01/04 21:01:40;;;;;;;;;;;-0.70;99.90;;;-1.70;82.23;95027.06;10479520;28;2067;-84
2021/01/04 21:06:42;;;;;;;;;;;0.80;99.90;;;-1.65;82.23;95023.78;10485856;28;2236;-82
2021/01/04 21:11:46;;;;;;;;;;;-0.90;99.90;;;-1.65;82.40;95029.88;10468679;28;2085;-84
2021/01/04 21:16:49;;;;;;;;;;;-0.80;99.90;;;-1.79;82.98;95028.34;10473947;28;2072;-82
2021/01/04 21:22:03;;;;;;;;;;;;;;;;;;;;;
2021/01/04 21:33:07;;;;;;;;;;;-0.60;99.90;;;-1.58;81.89;95018.47;10817677;22;2295;-82
2021/01/04 21:38:09;;;;;;;;;;;-0.50;99.90;;;-1.69;81.83;95009.41;10431743;28;2042;-82
2021/01/04 21:43:14;;;;;;;;;;;-0.70;99.90;;;-1.65;82.34;95003.50;10445690;28;2097;-83
2021/01/04 21:48:26;;;;;;;;;;;0.80;99.90;;;-1.79;83.50;95007.25;10450678;28;1343;-83
2021/01/04 21:53:31;;;;;;;;;;;-0.80;99.90;;;-1.79;83.05;94996.72;10439409;28;1976;-84
2021/01/04 21:58:33;;;;;;;;;;;-0.70;99.90;;;-1.82;83.38;94997.16;10451560;28;1974;-82
2021/01/04 22:03:37;;;;;;;;;;;-0.10;99.90;;;-1.88;82.98;94989.31;10450747;28;2033;-84
2021/01/04 22:08:50;;;;;;;;;;;0.10;99.90;;;-1.71;82.48;94993.84;10456561;28;2033;-83
2021/01/04 22:13:55;;;;;;;;;;;-0.80;99.90;;;-1.81;82.76;94990.88;10451534;28;2108;-83
2021/01/04 22:19:00;;;;;;;;;;;1.20;99.90;;;-1.77;82.62;94989.44;10439355;28;2061;-81
2021/01/04 22:24:08;;;;;;;;;;;-0.90;99.90;;;-1.65;82.73;94985.06;10427151;28;1285;-83
2021/01/04 22:29:14;;;;;;;;;;;0.80;99.90;;;-1.57;81.29;94988.44;10443259;28;1974;-82
2021/01/04 22:34:17;;;;;;;;;;;1.10;99.90;;;-1.52;82.01;94993.88;10440829;28;2254;-83
2021/01/04 22:39:21;;;;;;;;;;;-0.60;99.90;;;-1.50;81.16;94982.06;10444011;28;1962;-84
2021/01/04 22:44:25;;;;;;;;;;;-0.30;99.90;;;-1.62;82.29;94981.19;10431450;28;2061;-84
2021/01/04 22:49:27;;;;;;;;;;;-0.10;99.90;;;-1.59;82.34;94980.75;10444171;28;2158;-83
2021/01/04 22:54:32;;;;;;;;;;;-0.60;99.90;;;-1.66;82.10;94975.53;10445859;28;2002;-82
2021/01/04 22:59:38;;;;;;;;;;;0.00;99.90;;;-1.52;81.75;94988.59;10445353;28;2054;-83
2021/01/04 23:04:50;;;;;;;;;;;-0.10;99.90;;;-1.71;83.07;94979.84;10445146;28;1930;-85
2021/01/04 23:10:04;;;;;;;;;;;1.90;99.90;;;-1.72;82.50;94970.31;10454762;28;2053;-84
2021/01/04 23:15:07;;;;;;;;;;;1.20;99.90;;;-1.76;82.87;94975.22;10444589;28;1948;-82
2021/01/04 23:20:15;;;;;;;;;;;-0.70;99.90;;;-1.58;82.79;94973.66;10430227;28;2122;-83
2021/01/04 23:25:21;;;;;;;;;;;-0.70;99.90;;;-1.64;82.41;94977.97;10439755;28;1935;-83
2021/01/04 23:30:23;;;;;;;;;;;1.00;99.90;;;-1.56;81.49;94975.03;10432007;28;1833;-83
2021/01/04 23:35:25;;;;;;;;;;;0.50;99.90;;;-1.48;81.91;94971.31;10428168;28;2046;-84
2021/01/04 23:40:30;;;;;;;;;;;1.10;99.90;;;-1.57;81.26;94962.09;10430800;28;2083;-84
2021/01/04 23:45:32;;;;;;;;;;;-0.50;99.90;;;-1.73;83.01;94956.34;10455173;28;1780;-83
2021/01/04 23:50:34;;;;;;;;;;;0.60;99.90;;;-1.79;82.43;94951.94;10440260;28;1985;-83
2021/01/04 23:55:36;;;;;;;;;;;0.60;99.90;;;-2.06;84.01;94953.19;10438523;28;2040;-82
